sensor_id;sensor_type;location;lat;lon;timestamp;temperature;humidity
53520;DHT22;39397;53.204;5.778;2023-05-29T00:00:33;9.20;99.90
53520;DHT22;39397;53.204;5.778;2023-05-29T00:02:59;8.80;99.90
53520;DHT22;39397;53.204;5.778;2023-05-29T00:05:24;10.10;99.90
53520;DHT22;39397;53.204;5.778;2023-05-29T00:07:50;9.50;99.90
53520;DHT22;39397;53.204;5.778;2023-05-29T00:10:16;9.00;99.90
53520;DHT22;39397;53.204;5.778;2023-05-29T00:12:42;8.80;99.90
53520;DHT22;39397;53.204;5.778;2023-05-29T00:15:09;10.80;99.90
53520;DHT22;39397;53.204;5.778;2023-05-29T00:17:38;8.80;99.90
53520;DHT22;39397;53.204;5.778;2023-05-29T00:20:06;8.70;99.90
53520;DHT22;39397;53.204;5.778;2023-05-29T00:22:36;8.70;99.90
53520;DHT22;39397;53.204;5.778;2023-05-29T00:25:08;9.70;99.90
53520;DHT22;39397;53.204;5.778;2023-05-29T00:27:34;8.70;99.90
53520;DHT22;39397;53.204;5.778;2023-05-29T00:30:01;8.70;99.90
53520;DHT22;39397;53.204;5.778;2023-05-29T00:32:26;8.60;99.90
53520;DHT22;39397;53.204;5.778;2023-05-29T00:34:55;8.60;99.90
53520;DHT22;39397;53.204;5.778;2023-05-29T00:37:21;9.10;99.90
53520;DHT22;39397;53.204;5.778;2023-05-29T00:39:48;8.50;99.90
53520;DHT22;39397;53.204;5.778;2023-05-29T00:42:14;9.10;99.90
53520;DHT22;39397;53.204;5.778;2023-05-29T00:44:39;8.50;99.90
53520;DHT22;39397;53.204;5.778;2023-05-29T00:47:06;9.50;99.90
53520;DHT22;39397;53.204;5.778;2023-05-29T00:49:32;8.50;99.90
53520;DHT22;39397;53.204;5.778;2023-05-29T00:51:58;8.50;99.90
53520;DHT22;39397;53.204;5.778;2023-05-29T00:54:27;9.80;99.90
53520;DHT22;39397;53.204;5.778;2023-05-29T00:56:54;8.50;99.90
53520;DHT22;39397;53.204;5.778;2023-05-29T00:59:21;8.50;99.90
53520;DHT22;39397;53.204;5.778;2023-05-29T01:01:51;9.90;99.90
53520;DHT22;39397;53.204;5.778;2023-05-29T01:04:18;9.80;99.90
53520;DHT22;39397;53.204;5.778;2023-05-29T01:06:44;8.50;99.90
53520;DHT22;39397;53.204;5.778;2023-05-29T01:09:10;8.70;99.90
53520;DHT22;39397;53.204;5.778;2023-05-29T01:11:57;8.40;99.90
53520;DHT22;39397;53.204;5.778;2023-05-29T01:14:52;8.60;99.90
53520;DHT22;39397;53.204;5.778;2023-05-29T01:20:18;8.60;99.90
53520;DHT22;39397;53.204;5.778;2023-05-29T01:28:21;8.60;99.90
53520;DHT22;39397;53.204;5.778;2023-05-29T01:30:50;8.60;99.90
53520;DHT22;39397;53.204;5.778;2023-05-29T01:33:17;8.60;99.90
53520;DHT22;39397;53.204;5.778;2023-05-29T01:35:43;9.50;99.90
53520;DHT22;39397;53.204;5.778;2023-05-29T01:38:08;8.50;99.90
53520;DHT22;39397;53.204;5.778;2023-05-29T01:40:34;8.70;99.90
53520;DHT22;39397;53.204;5.778;2023-05-29T01:43:01;8.50;99.90
53520;DHT22;39397;53.204;5.778;2023-05-29T01:45:27;8.60;99.90
53520;DHT22;39397;53.204;5.778;2023-05-29T01:47:53;10.00;99.90
53520;DHT22;39397;53.204;5.778;2023-05-29T01:50:20;8.70;99.90
53520;DHT22;39397;53.204;5.778;2023-05-29T01:52:48;8.80;99.90
53520;DHT22;39397;53.204;5.778;2023-05-29T01:55:15;8.80;99.90
53520;DHT22;39397;53.204;5.778;2023-05-29T01:57:41;8.90;99.90
53520;DHT22;39397;53.204;5.778;2023-05-29T02:00:07;9.00;99.90
53520;DHT22;39397;53.204;5.778;2023-05-29T02:02:39;9.00;99.90
53520;DHT22;39397;53.204;5.778;2023-05-29T02:05:07;9.00;99.90
53520;DHT22;39397;53.204;5.778;2023-05-29T02:07:34;9.10;99.90
53520;DHT22;39397;53.204;5.778;2023-05-29T02:10:00;9.90;99.90
53520;DHT22;39397;53.204;5.778;2023-05-29T02:12:25;9.10;99.90
53520;DHT22;39397;53.204;5.778;2023-05-29T02:14:51;9.20;99.90
53520;DHT22;39397;53.204;5.778;2023-05-29T02:17:17;9.40;99.90
53520;DHT22;39397;53.204;5.778;2023-05-29T02:19:44;9.20;99.90
53520;DHT22;39397;53.204;5.778;2023-05-29T02:22:10;9.20;99.90
53520;DHT22;39397;53.204;5.778;2023-05-29T02:24:36;9.20;99.90
53520;DHT22;39397;53.204;5.778;2023-05-29T02:27:01;9.30;99.90
53520;DHT22;39397;53.204;5.778;2023-05-29T02:29:28;9.40;99.90
53520;DHT22;39397;53.204;5.778;2023-05-29T02:31:54;9.50;99.90
53520;DHT22;39397;53.204;5.778;2023-05-29T02:34:20;9.50;99.90
53520;DHT22;39397;53.204;5.778;2023-05-29T02:36:48;9.60;99.90
53520;DHT22;39397;53.204;5.778;2023-05-29T02:39:14;9.50;99.90
53520;DHT22;39397;53.204;5.778;2023-05-29T02:41:40;9.60;99.90
53520;DHT22;39397;53.204;5.778;2023-05-29T02:44:05;9.90;99.90
53520;DHT22;39397;53.204;5.778;2023-05-29T02:46:31;9.70;99.90
53520;DHT22;39397;53.204;5.778;2023-05-29T02:48:57;9.60;99.90
53520;DHT22;39397;53.204;5.778;2023-05-29T02:51:22;9.70;99.90
53520;DHT22;39397;53.204;5.778;2023-05-29T02:53:48;9.70;99.90
53520;DHT22;39397;53.204;5.778;2023-05-29T02:56:14;9.70;99.90
53520;DHT22;39397;53.204;5.778;2023-05-29T02:58:41;9.80;99.90
53520;DHT22;39397;53.204;5.778;2023-05-29T03:01:07;9.80;99.90
53520;DHT22;39397;53.204;5.778;2023-05-29T03:03:33;9.80;99.90
53520;DHT22;39397;53.204;5.778;2023-05-29T03:05:59;10.60;99.90
53520;DHT22;39397;53.204;5.778;2023-05-29T03:08:26;9.90;99.90
53520;DHT22;39397;53.204;5.778;2023-05-29T03:10:54;10.00;99.90
53520;DHT22;39397;53.204;5.778;2023-05-29T03:13:19;10.00;99.90
53520;DHT22;39397;53.204;5.778;2023-05-29T03:15:45;10.00;99.90
53520;DHT22;39397;53.204;5.778;2023-05-29T03:18:11;10.00;99.90
53520;DHT22;39397;53.204;5.778;2023-05-29T03:20:37;10.20;99.90
53520;DHT22;39397;53.204;5.778;2023-05-29T03:23:02;10.10;99.90
53520;DHT22;39397;53.204;5.778;2023-05-29T03:25:29;10.20;99.90
53520;DHT22;39397;53.204;5.778;2023-05-29T03:27:55;10.30;99.90
53520;DHT22;39397;53.204;5.778;2023-05-29T03:30:21;10.20;99.90
53520;DHT22;39397;53.204;5.778;2023-05-29T03:32:46;10.20;99.90
53520;DHT22;39397;53.204;5.778;2023-05-29T03:35:12;10.20;99.90
53520;DHT22;39397;53.204;5.778;2023-05-29T03:37:38;10.20;99.90
53520;DHT22;39397;53.204;5.778;2023-05-29T03:40:04;10.30;99.90
53520;DHT22;39397;53.204;5.778;2023-05-29T03:42:30;10.30;99.90
53520;DHT22;39397;53.204;5.778;2023-05-29T03:44:56;10.40;99.90
53520;DHT22;39397;53.204;5.778;2023-05-29T03:47:22;10.30;99.90
53520;DHT22;39397;53.204;5.778;2023-05-29T03:49:48;10.40;99.90
53520;DHT22;39397;53.204;5.778;2023-05-29T03:52:14;10.50;99.90
53520;DHT22;39397;53.204;5.778;2023-05-29T03:54:40;10.40;99.90
53520;DHT22;39397;53.204;5.778;2023-05-29T03:57:05;10.50;99.90
53520;DHT22;39397;53.204;5.778;2023-05-29T03:59:32;10.40;99.90
53520;DHT22;39397;53.204;5.778;2023-05-29T04:01:58;10.40;99.90
53520;DHT22;39397;53.204;5.778;2023-05-29T04:04:24;10.40;99.90
53520;DHT22;39397;53.204;5.778;2023-05-29T04:06:50;10.60;99.90
53520;DHT22;39397;53.204;5.778;2023-05-29T04:09:15;10.40;99.90
53520;DHT22;39397;53.204;5.778;2023-05-29T04:11:41;10.60;99.90
53520;DHT22;39397;53.204;5.778;2023-05-29T04:14:10;10.60;99.90
53520;DHT22;39397;53.204;5.778;2023-05-29T04:16:35;10.60;99.90
53520;DHT22;39397;53.204;5.778;2023-05-29T04:19:01;10.50;99.90
53520;DHT22;39397;53.204;5.778;2023-05-29T04:21:27;10.60;99.90
53520;DHT22;39397;53.204;5.778;2023-05-29T04:23:53;10.70;99.90
53520;DHT22;39397;53.204;5.778;2023-05-29T04:26:21;10.70;99.90
53520;DHT22;39397;53.204;5.778;2023-05-29T04:28:51;10.80;99.90
53520;DHT22;39397;53.204;5.778;2023-05-29T04:31:23;10.70;99.90
53520;DHT22;39397;53.204;5.778;2023-05-29T04:33:54;10.90;99.90
53520;DHT22;39397;53.204;5.778;2023-05-29T04:36:24;10.70;99.90
53520;DHT22;39397;53.204;5.778;2023-05-29T04:38:53;10.90;99.90
53520;DHT22;39397;53.204;5.778;2023-05-29T04:41:19;10.80;99.90
53520;DHT22;39397;53.204;5.778;2023-05-29T04:43:57;11.30;99.90
53520;DHT22;39397;53.204;5.778;2023-05-29T04:46:24;10.90;99.90
53520;DHT22;39397;53.204;5.778;2023-05-29T04:48:51;11.00;99.90
53520;DHT22;39397;53.204;5.778;2023-05-29T04:51:23;11.20;99.90
53520;DHT22;39397;53.204;5.778;2023-05-29T04:53:50;11.20;99.90
53520;DHT22;39397;53.204;5.778;2023-05-29T04:56:17;11.10;99.90
53520;DHT22;39397;53.204;5.778;2023-05-29T04:58:43;11.10;99.90
53520;DHT22;39397;53.204;5.778;2023-05-29T05:01:09;11.20;99.90
53520;DHT22;39397;53.204;5.778;2023-05-29T05:03:43;11.20;99.90
53520;DHT22;39397;53.204;5.778;2023-05-29T05:06:09;11.20;99.90
53520;DHT22;39397;53.204;5.778;2023-05-29T05:08:35;11.10;99.90
53520;DHT22;39397;53.204;5.778;2023-05-29T05:11:01;11.20;99.90
53520;DHT22;39397;53.204;5.778;2023-05-29T05:13:27;11.20;99.90
53520;DHT22;39397;53.204;5.778;2023-05-29T05:15:53;11.20;99.90
53520;DHT22;39397;53.204;5.778;2023-05-29T05:18:19;11.30;99.90
53520;DHT22;39397;53.204;5.778;2023-05-29T05:20:45;11.40;99.90
53520;DHT22;39397;53.204;5.778;2023-05-29T05:23:11;11.50;99.90
53520;DHT22;39397;53.204;5.778;2023-05-29T05:25:37;11.50;99.90
53520;DHT22;39397;53.204;5.778;2023-05-29T05:28:04;11.60;99.90
53520;DHT22;39397;53.204;5.778;2023-05-29T05:30:30;11.60;99.90
53520;DHT22;39397;53.204;5.778;2023-05-29T05:32:56;11.50;99.90
53520;DHT22;39397;53.204;5.778;2023-05-29T05:35:22;11.80;99.90
53520;DHT22;39397;53.204;5.778;2023-05-29T05:37:47;11.70;99.90
53520;DHT22;39397;53.204;5.778;2023-05-29T05:40:13;11.70;99.90
53520;DHT22;39397;53.204;5.778;2023-05-29T05:42:39;11.90;99.90
53520;DHT22;39397;53.204;5.778;2023-05-29T05:45:05;12.00;99.90
53520;DHT22;39397;53.204;5.778;2023-05-29T05:47:32;11.40;99.90
53520;DHT22;39397;53.204;5.778;2023-05-29T05:49:58;12.00;99.90
53520;DHT22;39397;53.204;5.778;2023-05-29T05:52:24;12.00;99.90
53520;DHT22;39397;53.204;5.778;2023-05-29T05:54:51;12.10;99.90
53520;DHT22;39397;53.204;5.778;2023-05-29T05:57:17;12.00;99.90
53520;DHT22;39397;53.204;5.778;2023-05-29T05:59:43;12.10;99.90
53520;DHT22;39397;53.204;5.778;2023-05-29T06:02:09;12.10;99.90
53520;DHT22;39397;53.204;5.778;2023-05-29T06:04:34;12.20;99.90
53520;DHT22;39397;53.204;5.778;2023-05-29T06:07:01;12.30;99.90
53520;DHT22;39397;53.204;5.778;2023-05-29T06:09:26;12.10;99.90
53520;DHT22;39397;53.204;5.778;2023-05-29T06:11:53;12.10;99.90
53520;DHT22;39397;53.204;5.778;2023-05-29T06:14:19;12.10;99.90
53520;DHT22;39397;53.204;5.778;2023-05-29T06:16:45;12.50;99.90
53520;DHT22;39397;53.204;5.778;2023-05-29T06:19:11;12.50;99.90
53520;DHT22;39397;53.204;5.778;2023-05-29T06:21:37;12.60;99.90
53520;DHT22;39397;53.204;5.778;2023-05-29T06:24:03;12.80;99.90
53520;DHT22;39397;53.204;5.778;2023-05-29T06:26:28;12.70;99.90
53520;DHT22;39397;53.204;5.778;2023-05-29T06:28:54;12.90;99.90
53520;DHT22;39397;53.204;5.778;2023-05-29T06:31:20;12.80;99.90
53520;DHT22;39397;53.204;5.778;2023-05-29T06:33:46;13.00;99.90
53520;DHT22;39397;53.204;5.778;2023-05-29T06:36:12;12.90;99.90
53520;DHT22;39397;53.204;5.778;2023-05-29T06:38:37;13.00;99.90
53520;DHT22;39397;53.204;5.778;2023-05-29T06:41:03;13.00;99.90
53520;DHT22;39397;53.204;5.778;2023-05-29T06:43:29;13.10;99.90
53520;DHT22;39397;53.204;5.778;2023-05-29T06:45:55;13.20;99.90
53520;DHT22;39397;53.204;5.778;2023-05-29T06:48:21;13.20;99.90
53520;DHT22;39397;53.204;5.778;2023-05-29T06:50:47;13.30;99.90
53520;DHT22;39397;53.204;5.778;2023-05-29T06:53:13;13.70;99.90
53520;DHT22;39397;53.204;5.778;2023-05-29T06:55:39;13.50;99.90
53520;DHT22;39397;53.204;5.778;2023-05-29T06:58:08;13.50;99.90
53520;DHT22;39397;53.204;5.778;2023-05-29T07:00:34;13.30;99.90
53520;DHT22;39397;53.204;5.778;2023-05-29T07:02:59;13.30;99.90
53520;DHT22;39397;53.204;5.778;2023-05-29T07:05:26;13.30;99.90
53520;DHT22;39397;53.204;5.778;2023-05-29T07:07:52;13.30;99.90
53520;DHT22;39397;53.204;5.778;2023-05-29T07:10:18;13.50;99.90
53520;DHT22;39397;53.204;5.778;2023-05-29T07:12:43;13.50;99.90
53520;DHT22;39397;53.204;5.778;2023-05-29T07:15:09;13.60;99.90
53520;DHT22;39397;53.204;5.778;2023-05-29T07:17:35;13.60;99.90
53520;DHT22;39397;53.204;5.778;2023-05-29T07:20:01;13.60;99.90
53520;DHT22;39397;53.204;5.778;2023-05-29T07:22:27;13.60;99.90
53520;DHT22;39397;53.204;5.778;2023-05-29T07:24:52;13.50;99.90
53520;DHT22;39397;53.204;5.778;2023-05-29T07:27:18;13.50;99.90
53520;DHT22;39397;53.204;5.778;2023-05-29T07:29:44;13.50;99.90
53520;DHT22;39397;53.204;5.778;2023-05-29T07:32:09;13.60;99.90
53520;DHT22;39397;53.204;5.778;2023-05-29T07:34:36;13.60;99.90
53520;DHT22;39397;53.204;5.778;2023-05-29T07:37:02;13.60;99.90
53520;DHT22;39397;53.204;5.778;2023-05-29T07:39:29;13.60;99.90
53520;DHT22;39397;53.204;5.778;2023-05-29T07:41:55;13.70;99.90
53520;DHT22;39397;53.204;5.778;2023-05-29T07:44:21;13.70;99.90
53520;DHT22;39397;53.204;5.778;2023-05-29T07:46:47;13.90;99.90
53520;DHT22;39397;53.204;5.778;2023-05-29T07:49:13;13.70;99.90
53520;DHT22;39397;53.204;5.778;2023-05-29T07:51:39;13.80;99.90
53520;DHT22;39397;53.204;5.778;2023-05-29T07:54:05;13.80;99.90
53520;DHT22;39397;53.204;5.778;2023-05-29T07:56:31;13.80;99.90
53520;DHT22;39397;53.204;5.778;2023-05-29T07:59:00;13.80;99.90
53520;DHT22;39397;53.204;5.778;2023-05-29T08:01:26;13.90;99.90
53520;DHT22;39397;53.204;5.778;2023-05-29T08:03:52;13.90;99.90
53520;DHT22;39397;53.204;5.778;2023-05-29T08:06:18;14.00;99.90
53520;DHT22;39397;53.204;5.778;2023-05-29T08:08:44;13.90;99.90
53520;DHT22;39397;53.204;5.778;2023-05-29T08:11:10;13.80;99.90
53520;DHT22;39397;53.204;5.778;2023-05-29T08:13:36;13.80;99.90
53520;DHT22;39397;53.204;5.778;2023-05-29T08:16:03;14.00;99.90
53520;DHT22;39397;53.204;5.778;2023-05-29T08:18:31;14.20;99.90
53520;DHT22;39397;53.204;5.778;2023-05-29T08:20:58;14.10;99.90
53520;DHT22;39397;53.204;5.778;2023-05-29T08:23:24;14.30;99.90
53520;DHT22;39397;53.204;5.778;2023-05-29T08:25:50;14.50;99.90
53520;DHT22;39397;53.204;5.778;2023-05-29T08:28:15;14.50;99.90
53520;DHT22;39397;53.204;5.778;2023-05-29T08:30:41;14.50;99.90
53520;DHT22;39397;53.204;5.778;2023-05-29T08:33:07;14.80;99.90
53520;DHT22;39397;53.204;5.778;2023-05-29T08:35:33;15.00;99.90
53520;DHT22;39397;53.204;5.778;2023-05-29T08:37:59;15.20;99.90
53520;DHT22;39397;53.204;5.778;2023-05-29T08:40:25;15.40;99.90
53520;DHT22;39397;53.204;5.778;2023-05-29T08:42:58;15.50;99.50
53520;DHT22;39397;53.204;5.778;2023-05-29T08:45:25;15.60;98.60
53520;DHT22;39397;53.204;5.778;2023-05-29T08:47:52;15.70;98.80
53520;DHT22;39397;53.204;5.778;2023-05-29T08:50:20;15.70;98.70
53520;DHT22;39397;53.204;5.778;2023-05-29T08:52:47;15.60;98.40
53520;DHT22;39397;53.204;5.778;2023-05-29T08:55:13;15.30;98.80
53520;DHT22;39397;53.204;5.778;2023-05-29T08:57:39;15.20;99.40
53520;DHT22;39397;53.204;5.778;2023-05-29T09:00:06;15.20;99.00
53520;DHT22;39397;53.204;5.778;2023-05-29T09:02:39;15.10;98.50
53520;DHT22;39397;53.204;5.778;2023-05-29T09:05:05;15.20;98.90
53520;DHT22;39397;53.204;5.778;2023-05-29T09:07:32;15.20;98.90
53520;DHT22;39397;53.204;5.778;2023-05-29T09:09:59;15.20;99.30
53520;DHT22;39397;53.204;5.778;2023-05-29T09:12:26;15.20;99.30
53520;DHT22;39397;53.204;5.778;2023-05-29T09:14:52;15.20;98.70
53520;DHT22;39397;53.204;5.778;2023-05-29T09:17:18;15.10;99.20
53520;DHT22;39397;53.204;5.778;2023-05-29T09:19:44;15.10;99.10
53520;DHT22;39397;53.204;5.778;2023-05-29T09:22:13;13.40;98.90
53520;DHT22;39397;53.204;5.778;2023-05-29T09:24:46;15.10;99.20
53520;DHT22;39397;53.204;5.778;2023-05-29T09:27:13;15.00;99.30
53520;DHT22;39397;53.204;5.778;2023-05-29T09:29:40;15.00;99.20
53520;DHT22;39397;53.204;5.778;2023-05-29T09:32:11;15.00;99.00
53520;DHT22;39397;53.204;5.778;2023-05-29T09:34:37;15.00;99.20
53520;DHT22;39397;53.204;5.778;2023-05-29T09:37:04;15.20;98.70
53520;DHT22;39397;53.204;5.778;2023-05-29T09:39:49;15.10;98.90
53520;DHT22;39397;53.204;5.778;2023-05-29T09:42:17;15.20;98.20
53520;DHT22;39397;53.204;5.778;2023-05-29T09:44:45;15.00;98.90
53520;DHT22;39397;53.204;5.778;2023-05-29T09:47:18;15.10;99.10
53520;DHT22;39397;53.204;5.778;2023-05-29T09:49:46;15.30;98.80
53520;DHT22;39397;53.204;5.778;2023-05-29T09:52:12;15.10;98.80
53520;DHT22;39397;53.204;5.778;2023-05-29T09:54:42;15.10;98.70
53520;DHT22;39397;53.204;5.778;2023-05-29T09:57:14;15.00;98.70
53520;DHT22;39397;53.204;5.778;2023-05-29T09:59:43;15.00;98.20
53520;DHT22;39397;53.204;5.778;2023-05-29T10:02:11;14.80;99.20
53520;DHT22;39397;53.204;5.778;2023-05-29T10:04:39;14.80;99.50
53520;DHT22;39397;53.204;5.778;2023-05-29T10:07:10;14.70;99.80
53520;DHT22;39397;53.204;5.778;2023-05-29T10:09:45;14.70;99.90
53520;DHT22;39397;53.204;5.778;2023-05-29T10:12:13;14.80;99.90
53520;DHT22;39397;53.204;5.778;2023-05-29T10:14:42;14.90;99.90
53520;DHT22;39397;53.204;5.778;2023-05-29T10:17:09;15.20;99.70
53520;DHT22;39397;53.204;5.778;2023-05-29T10:19:38;15.20;99.30
53520;DHT22;39397;53.204;5.778;2023-05-29T10:22:05;15.30;99.10
53520;DHT22;39397;53.204;5.778;2023-05-29T10:24:32;15.50;99.30
53520;DHT22;39397;53.204;5.778;2023-05-29T10:26:58;15.50;99.10
53520;DHT22;39397;53.204;5.778;2023-05-29T10:29:34;15.80;98.90
53520;DHT22;39397;53.204;5.778;2023-05-29T10:37:59;15.80;97.40
53520;DHT22;39397;53.204;5.778;2023-05-29T10:40:28;15.80;97.20
53520;DHT22;39397;53.204;5.778;2023-05-29T10:42:54;15.60;98.10
53520;DHT22;39397;53.204;5.778;2023-05-29T10:50:46;16.10;97.60
53520;DHT22;39397;53.204;5.778;2023-05-29T10:53:17;16.10;97.70
53520;DHT22;39397;53.204;5.778;2023-05-29T10:55:45;16.30;97.60
53520;DHT22;39397;53.204;5.778;2023-05-29T10:58:31;16.50;97.30
53520;DHT22;39397;53.204;5.778;2023-05-29T11:00:57;16.00;96.70
53520;DHT22;39397;53.204;5.778;2023-05-29T11:03:33;16.30;96.70
53520;DHT22;39397;53.204;5.778;2023-05-29T11:06:01;15.70;97.10
53520;DHT22;39397;53.204;5.778;2023-05-29T11:08:34;16.30;96.80
53520;DHT22;39397;53.204;5.778;2023-05-29T11:11:03;16.10;97.10
53520;DHT22;39397;53.204;5.778;2023-05-29T11:13:34;16.30;96.80
53520;DHT22;39397;53.204;5.778;2023-05-29T11:16:18;16.30;97.30
53520;DHT22;39397;53.204;5.778;2023-05-29T11:18:46;16.10;97.20
53520;DHT22;39397;53.204;5.778;2023-05-29T11:22:27;16.10;97.00
53520;DHT22;39397;53.204;5.778;2023-05-29T11:26:48;16.00;97.00
53520;DHT22;39397;53.204;5.778;2023-05-29T11:29:16;15.80;96.90
53520;DHT22;39397;53.204;5.778;2023-05-29T11:31:47;15.10;96.90
53520;DHT22;39397;53.204;5.778;2023-05-29T11:34:15;15.70;97.30
53520;DHT22;39397;53.204;5.778;2023-05-29T11:36:40;15.90;97.50
53520;DHT22;39397;53.204;5.778;2023-05-29T11:39:09;16.00;97.40
53520;DHT22;39397;53.204;5.778;2023-05-29T11:41:35;16.20;97.00
53520;DHT22;39397;53.204;5.778;2023-05-29T11:44:02;16.20;96.50
53520;DHT22;39397;53.204;5.778;2023-05-29T11:46:29;16.30;96.50
53520;DHT22;39397;53.204;5.778;2023-05-29T11:49:01;16.30;96.10
53520;DHT22;39397;53.204;5.778;2023-05-29T11:51:27;16.40;96.40
53520;DHT22;39397;53.204;5.778;2023-05-29T11:53:53;16.40;96.20
53520;DHT22;39397;53.204;5.778;2023-05-29T11:56:30;16.40;96.00
53520;DHT22;39397;53.204;5.778;2023-05-29T11:58:58;16.40;95.80
53520;DHT22;39397;53.204;5.778;2023-05-29T12:01:25;15.90;95.70
53520;DHT22;39397;53.204;5.778;2023-05-29T12:03:52;16.30;95.60
53520;DHT22;39397;53.204;5.778;2023-05-29T12:06:34;16.30;95.50
53520;DHT22;39397;53.204;5.778;2023-05-29T12:09:02;16.30;95.80
53520;DHT22;39397;53.204;5.778;2023-05-29T12:11:29;16.20;95.80
53520;DHT22;39397;53.204;5.778;2023-05-29T12:14:00;16.20;95.60
53520;DHT22;39397;53.204;5.778;2023-05-29T12:16:31;16.00;95.00
53520;DHT22;39397;53.204;5.778;2023-05-29T12:18:58;15.90;96.20
53520;DHT22;39397;53.204;5.778;2023-05-29T12:21:24;16.00;96.20
53520;DHT22;39397;53.204;5.778;2023-05-29T12:23:54;15.80;96.30
53520;DHT22;39397;53.204;5.778;2023-05-29T12:26:23;15.80;96.40
53520;DHT22;39397;53.204;5.778;2023-05-29T12:28:50;15.90;96.20
53520;DHT22;39397;53.204;5.778;2023-05-29T12:31:30;15.60;96.70
53520;DHT22;39397;53.204;5.778;2023-05-29T12:34:11;15.80;97.10
53520;DHT22;39397;53.204;5.778;2023-05-29T12:36:41;15.80;96.20
53520;DHT22;39397;53.204;5.778;2023-05-29T12:39:08;15.90;97.10
53520;DHT22;39397;53.204;5.778;2023-05-29T12:41:35;16.40;96.70
53520;DHT22;39397;53.204;5.778;2023-05-29T12:44:04;15.90;96.60
53520;DHT22;39397;53.204;5.778;2023-05-29T12:46:41;16.00;96.00
53520;DHT22;39397;53.204;5.778;2023-05-29T12:49:17;15.80;96.30
53520;DHT22;39397;53.204;5.778;2023-05-29T12:51:47;15.80;95.60
53520;DHT22;39397;53.204;5.778;2023-05-29T12:54:14;15.90;96.20
53520;DHT22;39397;53.204;5.778;2023-05-29T12:56:41;15.80;96.30
53520;DHT22;39397;53.204;5.778;2023-05-29T12:59:07;15.70;96.30
53520;DHT22;39397;53.204;5.778;2023-05-29T13:01:34;15.80;96.40
53520;DHT22;39397;53.204;5.778;2023-05-29T13:04:00;15.80;96.40
53520;DHT22;39397;53.204;5.778;2023-05-29T13:06:26;15.60;96.90
53520;DHT22;39397;53.204;5.778;2023-05-29T13:08:51;15.40;97.20
53520;DHT22;39397;53.204;5.778;2023-05-29T13:11:17;15.50;97.20
53520;DHT22;39397;53.204;5.778;2023-05-29T13:13:43;15.50;97.30
53520;DHT22;39397;53.204;5.778;2023-05-29T13:16:09;15.60;97.30
53520;DHT22;39397;53.204;5.778;2023-05-29T13:18:35;15.80;97.20
53520;DHT22;39397;53.204;5.778;2023-05-29T13:21:01;16.00;96.40
53520;DHT22;39397;53.204;5.778;2023-05-29T13:23:26;16.00;96.40
53520;DHT22;39397;53.204;5.778;2023-05-29T13:25:52;16.20;96.70
53520;DHT22;39397;53.204;5.778;2023-05-29T13:28:18;16.20;96.60
53520;DHT22;39397;53.204;5.778;2023-05-29T13:30:44;16.40;95.60
53520;DHT22;39397;53.204;5.778;2023-05-29T13:33:10;16.20;95.60
53520;DHT22;39397;53.204;5.778;2023-05-29T13:35:36;16.00;96.10
53520;DHT22;39397;53.204;5.778;2023-05-29T13:38:02;16.00;95.70
53520;DHT22;39397;53.204;5.778;2023-05-29T13:40:27;16.00;95.60
53520;DHT22;39397;53.204;5.778;2023-05-29T13:42:54;15.80;96.10
53520;DHT22;39397;53.204;5.778;2023-05-29T13:45:20;15.80;96.60
53520;DHT22;39397;53.204;5.778;2023-05-29T13:47:46;15.90;96.60
53520;DHT22;39397;53.204;5.778;2023-05-29T13:50:11;16.00;96.30
53520;DHT22;39397;53.204;5.778;2023-05-29T13:52:38;16.10;95.60
53520;DHT22;39397;53.204;5.778;2023-05-29T13:55:04;16.00;95.80
53520;DHT22;39397;53.204;5.778;2023-05-29T13:57:34;16.10;95.80
53520;DHT22;39397;53.204;5.778;2023-05-29T14:00:00;16.20;95.40
53520;DHT22;39397;53.204;5.778;2023-05-29T14:02:26;16.30;94.90
53520;DHT22;39397;53.204;5.778;2023-05-29T14:04:52;16.30;94.90
53520;DHT22;39397;53.204;5.778;2023-05-29T14:07:17;16.30;94.80
53520;DHT22;39397;53.204;5.778;2023-05-29T14:09:43;16.50;94.90
53520;DHT22;39397;53.204;5.778;2023-05-29T14:12:09;16.40;94.50
53520;DHT22;39397;53.204;5.778;2023-05-29T14:14:35;16.30;94.30
53520;DHT22;39397;53.204;5.778;2023-05-29T14:17:00;16.30;94.20
53520;DHT22;39397;53.204;5.778;2023-05-29T14:19:26;16.50;94.30
53520;DHT22;39397;53.204;5.778;2023-05-29T14:21:52;16.70;94.00
53520;DHT22;39397;53.204;5.778;2023-05-29T14:24:18;16.70;93.60
53520;DHT22;39397;53.204;5.778;2023-05-29T14:26:44;17.10;93.30
53520;DHT22;39397;53.204;5.778;2023-05-29T14:29:12;17.30;92.60
53520;DHT22;39397;53.204;5.778;2023-05-29T14:31:39;17.20;92.30
53520;DHT22;39397;53.204;5.778;2023-05-29T14:34:05;17.20;92.40
53520;DHT22;39397;53.204;5.778;2023-05-29T14:36:31;17.60;92.20
53520;DHT22;39397;53.204;5.778;2023-05-29T14:38:57;17.30;92.30
53520;DHT22;39397;53.204;5.778;2023-05-29T14:41:23;17.60;92.40
53520;DHT22;39397;53.204;5.778;2023-05-29T14:43:50;17.80;92.40
53520;DHT22;39397;53.204;5.778;2023-05-29T14:46:17;18.10;90.90
53520;DHT22;39397;53.204;5.778;2023-05-29T14:48:43;17.90;91.50
53520;DHT22;39397;53.204;5.778;2023-05-29T14:51:09;15.90;91.30
53520;DHT22;39397;53.204;5.778;2023-05-29T14:53:36;18.10;91.10
53520;DHT22;39397;53.204;5.778;2023-05-29T14:56:02;18.00;90.80
53520;DHT22;39397;53.204;5.778;2023-05-29T14:58:28;18.00;91.30
53520;DHT22;39397;53.204;5.778;2023-05-29T15:00:53;17.90;91.50
53520;DHT22;39397;53.204;5.778;2023-05-29T15:03:19;17.80;91.60
53520;DHT22;39397;53.204;5.778;2023-05-29T15:05:45;18.10;91.60
53520;DHT22;39397;53.204;5.778;2023-05-29T15:08:14;18.20;91.30
53520;DHT22;39397;53.204;5.778;2023-05-29T15:10:40;18.40;91.10
53520;DHT22;39397;53.204;5.778;2023-05-29T15:13:06;18.70;90.60
53520;DHT22;39397;53.204;5.778;2023-05-29T15:15:32;18.40;90.50
53520;DHT22;39397;53.204;5.778;2023-05-29T15:17:58;16.80;89.50
53520;DHT22;39397;53.204;5.778;2023-05-29T15:20:26;18.40;90.70
53520;DHT22;39397;53.204;5.778;2023-05-29T15:22:52;18.50;90.60
53520;DHT22;39397;53.204;5.778;2023-05-29T15:25:19;18.50;90.70
53520;DHT22;39397;53.204;5.778;2023-05-29T15:27:45;18.50;90.10
53520;DHT22;39397;53.204;5.778;2023-05-29T15:30:12;18.70;89.60
53520;DHT22;39397;53.204;5.778;2023-05-29T15:32:39;18.90;88.90
53520;DHT22;39397;53.204;5.778;2023-05-29T15:35:09;19.00;89.20
53520;DHT22;39397;53.204;5.778;2023-05-29T15:37:36;18.20;86.20
53520;DHT22;39397;53.204;5.778;2023-05-29T15:40:02;19.20;87.60
53520;DHT22;39397;53.204;5.778;2023-05-29T15:42:28;19.20;87.60
53520;DHT22;39397;53.204;5.778;2023-05-29T15:44:54;19.00;88.10
53520;DHT22;39397;53.204;5.778;2023-05-29T15:47:26;19.10;89.50
53520;DHT22;39397;53.204;5.778;2023-05-29T15:49:52;19.10;88.20
53520;DHT22;39397;53.204;5.778;2023-05-29T15:52:17;19.30;87.80
53520;DHT22;39397;53.204;5.778;2023-05-29T15:54:43;19.30;86.90